Time;durP1;ratioP1;P1;durP2;ratioP2;P2;SDS_P1;SDS_P2;PMS_P1;PMS_P2;Temp;Humidity;BMP_temperature;BMP_pressure;BME280_temperature;BME280_humidity;BME280_pressure;Samples;Min_cycle;Max_cycle;Signal;HPM_P1;HPM_P2
2021/08/04 00:01:15;;;;;;;2.90;2.20;;;;;;;;;;5052597;28;20024;-53
2021/08/04 00:03:41;;;;;;;6.18;2.22;;;;;;;;;;5053406;28;20017;-53
2021/08/04 00:06:07;;;;;;;2.55;1.35;;;;;;;;;;5053232;28;20421;-52
2021/08/04 00:08:33;;;;;;;2.17;1.70;;;;;;;;;;5053300;28;20469;-52
2021/08/04 00:11:00;;;;;;;2.28;1.67;;;;;;;;;;5052625;28;20025;-52
2021/08/04 00:13:26;;;;;;;4.82;2.17;;;;;;;;;;5053348;28;20021;-52
2021/08/04 00:15:53;;;;;;;2.00;1.80;;;;;;;;;;5051595;28;20055;-52
2021/08/04 00:18:19;;;;;;;3.22;1.40;;;;;;;;;;5052897;28;20032;-52
2021/08/04 00:20:45;;;;;;;2.65;1.50;;;;;;;;;;5051914;28;20037;-52
2021/08/04 00:23:11;;;;;;;3.65;1.80;;;;;;;;;;5053111;28;20044;-52
2021/08/04 00:25:37;;;;;;;2.50;1.67;;;;;;;;;;5053014;28;20040;-52
2021/08/04 00:28:03;;;;;;;7.05;1.65;;;;;;;;;;5052674;28;20040;-52
2021/08/04 00:30:29;;;;;;;2.60;1.70;;;;;;;;;;5053461;28;20178;-52
2021/08/04 00:32:55;;;;;;;1.25;1.08;;;;;;;;;;5052454;28;20107;-52
2021/08/04 00:35:22;;;;;;;4.40;1.48;;;;;;;;;;5052969;28;20025;-52
2021/08/04 00:37:48;;;;;;;6.55;1.75;;;;;;;;;;5052640;28;20466;-52
2021/08/04 00:40:14;;;;;;;2.80;1.30;;;;;;;;;;5053036;28;20037;-53
2021/08/04 00:42:41;;;;;;;4.47;1.30;;;;;;;;;;5052114;28;20032;-53
2021/08/04 00:45:08;;;;;;;3.92;1.58;;;;;;;;;;5052439;28;20029;-52
2021/08/04 00:47:34;;;;;;;2.22;1.15;;;;;;;;;;5052757;28;20025;-52
2021/08/04 00:50:00;;;;;;;1.98;1.75;;;;;;;;;;5052289;28;20508;-52
2021/08/04 00:52:26;;;;;;;1.70;1.27;;;;;;;;;;5052119;28;20021;-52
2021/08/04 00:54:52;;;;;;;2.72;1.48;;;;;;;;;;5052779;28;20354;-52
2021/08/04 00:57:18;;;;;;;1.98;1.33;;;;;;;;;;5052497;28;20021;-52
2021/08/04 00:59:44;;;;;;;1.55;1.20;;;;;;;;;;5051896;28;20025;-52
2021/08/04 01:02:10;;;;;;;2.88;1.55;;;;;;;;;;5052198;28;20559;-52
2021/08/04 01:04:43;;;;;;;1.88;1.50;;;;;;;;;;5052659;28;20308;-52
2021/08/04 01:07:09;;;;;;;1.15;1.05;;;;;;;;;;5052318;28;20497;-52
2021/08/04 01:09:45;;;;;;;4.68;1.27;;;;;;;;;;5052543;28;20025;-52
2021/08/04 01:12:12;;;;;;;3.97;1.45;;;;;;;;;;5051448;28;20025;-52
2021/08/04 01:14:40;;;;;;;1.63;1.23;;;;;;;;;;5052548;28;20028;-52
2021/08/04 01:17:06;;;;;;;2.45;1.67;;;;;;;;;;5052832;28;20029;-53
2021/08/04 01:19:35;;;;;;;2.90;1.65;;;;;;;;;;5052066;28;20021;-52
2021/08/04 01:22:13;;;;;;;1.45;1.20;;;;;;;;;;5051105;28;20514;-52
2021/08/04 01:24:39;;;;;;;1.25;1.15;;;;;;;;;;5055444;28;20036;-52
2021/08/04 01:27:06;;;;;;;3.00;1.58;;;;;;;;;;5056314;28;20029;-52
2021/08/04 01:29:32;;;;;;;2.53;1.75;;;;;;;;;;5056593;28;20086;-53
2021/08/04 01:32:00;;;;;;;1.88;1.25;;;;;;;;;;5055274;28;20460;-52
2021/08/04 01:34:27;;;;;;;2.83;1.50;;;;;;;;;;5056168;28;20146;-53
2021/08/04 01:36:53;;;;;;;1.70;1.33;;;;;;;;;;5055921;28;20039;-52
2021/08/04 01:39:20;;;;;;;1.75;1.17;;;;;;;;;;5055956;28;20036;-52
2021/08/04 01:41:48;;;;;;;1.20;1.10;;;;;;;;;;5059213;28;20422;-53
2021/08/04 01:44:14;;;;;;;2.13;1.35;;;;;;;;;;5076173;28;20032;-52
2021/08/04 01:46:40;;;;;;;1.55;1.27;;;;;;;;;;5076095;28;20095;-52
2021/08/04 01:49:07;;;;;;;1.58;1.23;;;;;;;;;;5076299;28;20027;-52
2021/08/04 01:51:33;;;;;;;2.80;1.35;;;;;;;;;;5074820;28;20358;-52
2021/08/04 01:53:59;;;;;;;1.83;1.10;;;;;;;;;;5075431;28;20147;-52
2021/08/04 01:56:26;;;;;;;2.08;1.33;;;;;;;;;;5075516;28;20033;-53
2021/08/04 01:58:52;;;;;;;2.03;1.50;;;;;;;;;;5076159;28;20103;-52
2021/08/04 02:01:18;;;;;;;1.45;1.13;;;;;;;;;;5074804;28;20054;-53
2021/08/04 02:03:44;;;;;;;2.55;1.42;;;;;;;;;;5057358;28;20025;-52
2021/08/04 02:06:15;;;;;;;18.98;1.75;;;;;;;;;;5055580;28;20039;-52
2021/08/04 02:08:52;;;;;;;1.27;1.15;;;;;;;;;;5055248;28;20098;-52
2021/08/04 02:11:23;;;;;;;1.40;1.30;;;;;;;;;;5054601;28;20028;-52
2021/08/04 02:14:05;;;;;;;1.83;1.45;;;;;;;;;;5054477;28;20108;-52
2021/08/04 02:16:34;;;;;;;1.92;1.30;;;;;;;;;;5055522;28;20039;-52
2021/08/04 02:19:12;;;;;;;3.17;1.60;;;;;;;;;;5054867;28;20028;-52
2021/08/04 02:21:38;;;;;;;1.35;1.13;;;;;;;;;;5054404;28;20082;-53
2021/08/04 02:24:04;;;;;;;1.98;1.38;;;;;;;;;;5054798;28;20036;-52
2021/08/04 02:26:31;;;;;;;1.95;1.35;;;;;;;;;;5055408;28;20048;-52
2021/08/04 02:28:58;;;;;;;3.33;1.80;;;;;;;;;;5054890;28;20465;-52
2021/08/04 02:31:24;;;;;;;2.25;1.70;;;;;;;;;;5053864;28;20029;-52
2021/08/04 02:33:51;;;;;;;3.72;1.50;;;;;;;;;;5055181;28;20029;-52
2021/08/04 02:36:17;;;;;;;2.15;1.45;;;;;;;;;;5053464;28;20103;-52
2021/08/04 02:38:43;;;;;;;3.10;1.73;;;;;;;;;;5055191;28;20017;-53
2021/08/04 02:41:10;;;;;;;2.50;1.73;;;;;;;;;;5054151;28;20049;-52
2021/08/04 02:43:36;;;;;;;3.88;1.60;;;;;;;;;;5054671;28;20032;-53
2021/08/04 02:46:02;;;;;;;2.17;1.45;;;;;;;;;;5053711;28;20029;-53
2021/08/04 02:48:29;;;;;;;3.22;1.80;;;;;;;;;;5054607;28;20056;-53
2021/08/04 02:51:02;;;;;;;2.85;1.50;;;;;;;;;;5053587;28;20025;-52
2021/08/04 02:53:28;;;;;;;1.75;1.58;;;;;;;;;;5055029;28;20061;-52
2021/08/04 02:55:54;;;;;;;5.43;1.95;;;;;;;;;;5055088;28;20051;-52
2021/08/04 02:58:20;;;;;;;3.67;1.63;;;;;;;;;;5054680;28;20107;-52
2021/08/04 03:00:47;;;;;;;1.63;1.27;;;;;;;;;;5053620;28;20490;-52
2021/08/04 03:03:13;;;;;;;1.80;1.27;;;;;;;;;;5055123;28;20032;-53
2021/08/04 03:05:39;;;;;;;2.72;1.42;;;;;;;;;;5069156;28;20029;-52
2021/08/04 03:08:05;;;;;;;1.88;1.40;;;;;;;;;;5054402;28;20017;-52
2021/08/04 03:10:31;;;;;;;4.70;1.52;;;;;;;;;;5058551;28;20107;-52
2021/08/04 03:12:57;;;;;;;4.28;1.67;;;;;;;;;;5073869;28;20063;-52
2021/08/04 03:15:23;;;;;;;1.85;1.15;;;;;;;;;;5074438;28;20320;-52
2021/08/04 03:17:49;;;;;;;1.90;1.70;;;;;;;;;;5073880;28;20168;-52
2021/08/04 03:20:15;;;;;;;4.40;1.73;;;;;;;;;;5074046;28;20128;-52
2021/08/04 03:22:46;;;;;;;2.85;1.80;;;;;;;;;;5073283;28;20092;-52
2021/08/04 03:25:13;;;;;;;5.97;1.80;;;;;;;;;;5074177;28;20236;-52
2021/08/04 03:27:39;;;;;;;6.30;1.75;;;;;;;;;;5074191;28;20074;-52
2021/08/04 03:30:05;;;;;;;2.88;1.73;;;;;;;;;;5073532;28;20392;-52
2021/08/04 03:32:31;;;;;;;2.55;1.88;;;;;;;;;;5073385;28;20031;-52
2021/08/04 03:34:57;;;;;;;5.63;2.22;;;;;;;;;;5073565;28;20021;-52
2021/08/04 03:37:23;;;;;;;2.30;1.63;;;;;;;;;;5073769;28;20024;-52
2021/08/04 03:39:49;;;;;;;1.70;1.30;;;;;;;;;;5073851;28;20025;-52
2021/08/04 03:42:16;;;;;;;3.03;1.52;;;;;;;;;;5073039;28;20028;-52
2021/08/04 03:44:43;;;;;;;2.95;1.88;;;;;;;;;;5073412;28;20020;-53
2021/08/04 03:47:09;;;;;;;2.72;1.77;;;;;;;;;;5073167;28;20024;-52
2021/08/04 03:49:34;;;;;;;3.33;2.00;;;;;;;;;;5073525;28;20021;-52
2021/08/04 03:52:00;;;;;;;2.80;1.95;;;;;;;;;;5072595;28;20032;-52
2021/08/04 03:54:26;;;;;;;2.53;1.70;;;;;;;;;;5073561;28;20074;-52
2021/08/04 03:56:52;;;;;;;1.65;1.30;;;;;;;;;;5072854;28;20112;-52
2021/08/04 03:59:18;;;;;;;6.57;1.85;;;;;;;;;;5072894;28;20031;-52
2021/08/04 04:01:44;;;;;;;1.70;1.50;;;;;;;;;;5072236;28;20025;-52
2021/08/04 04:04:10;;;;;;;1.77;1.58;;;;;;;;;;5073545;28;20032;-52
2021/08/04 04:06:36;;;;;;;2.95;1.42;;;;;;;;;;5073848;28;20282;-52
2021/08/04 04:09:02;;;;;;;2.97;1.92;;;;;;;;;;5073188;28;20059;-52
2021/08/04 04:11:29;;;;;;;4.47;2.40;;;;;;;;;;5072539;28;20100;-52
2021/08/04 04:13:55;;;;;;;3.33;2.03;;;;;;;;;;5072826;28;20029;-52
2021/08/04 04:16:22;;;;;;;2.78;1.85;;;;;;;;;;5073039;28;20205;-52
2021/08/04 04:18:48;;;;;;;6.30;2.05;;;;;;;;;;5073436;28;20042;-52
2021/08/04 04:21:14;;;;;;;4.90;1.45;;;;;;;;;;5072091;28;20024;-53
2021/08/04 04:23:40;;;;;;;3.85;2.20;;;;;;;;;;5072895;28;20357;-52
2021/08/04 04:26:06;;;;;;;2.30;1.58;;;;;;;;;;5072997;28;20028;-52
2021/08/04 04:28:32;;;;;;;2.63;1.50;;;;;;;;;;5073110;28;20078;-52
2021/08/04 04:30:58;;;;;;;5.72;2.17;;;;;;;;;;5071570;28;20036;-52
2021/08/04 04:33:25;;;;;;;5.28;1.60;;;;;;;;;;5073188;28;20448;-52
2021/08/04 04:35:51;;;;;;;5.90;2.13;;;;;;;;;;5072626;28;20021;-52
2021/08/04 04:38:17;;;;;;;2.42;1.67;;;;;;;;;;5072609;28;20043;-52
2021/08/04 04:40:43;;;;;;;2.13;1.65;;;;;;;;;;5071754;28;20366;-52
2021/08/04 04:43:09;;;;;;;1.70;1.30;;;;;;;;;;5073109;28;20024;-52
2021/08/04 04:45:35;;;;;;;3.00;1.48;;;;;;;;;;5072950;28;20024;-52
2021/08/04 04:48:01;;;;;;;2.58;1.02;;;;;;;;;;5072810;28;20107;-52
2021/08/04 04:50:27;;;;;;;2.28;1.67;;;;;;;;;;5072759;28;20362;-52
2021/08/04 04:52:53;;;;;;;5.32;2.45;;;;;;;;;;5071676;28;20078;-53
2021/08/04 04:55:18;;;;;;;4.05;2.08;;;;;;;;;;5069753;28;20341;-52
2021/08/04 04:57:44;;;;;;;1.90;1.45;;;;;;;;;;5072193;28;20099;-52
2021/08/04 05:00:11;;;;;;;2.10;1.48;;;;;;;;;;5072070;28;20339;-52
2021/08/04 05:02:38;;;;;;;5.18;1.50;;;;;;;;;;5071889;28;20024;-52
2021/08/04 05:05:05;;;;;;;2.70;1.70;;;;;;;;;;5072424;28;20025;-52
2021/08/04 05:07:30;;;;;;;2.63;1.55;;;;;;;;;;5072537;28;20036;-52
2021/08/04 05:09:56;;;;;;;4.00;1.55;;;;;;;;;;5072276;28;20028;-52
2021/08/04 05:12:22;;;;;;;6.30;2.75;;;;;;;;;;5063884;28;20068;-52
2021/08/04 05:14:48;;;;;;;4.50;1.70;;;;;;;;;;5052459;28;20336;-52
2021/08/04 05:17:14;;;;;;;2.53;1.50;;;;;;;;;;5052511;28;20418;-53
2021/08/04 05:19:41;;;;;;;3.10;1.65;;;;;;;;;;5051939;28;20083;-54
2021/08/04 05:22:07;;;;;;;4.72;2.47;;;;;;;;;;5051553;28;20374;-52
2021/08/04 05:24:33;;;;;;;2.33;1.42;;;;;;;;;;5052296;28;20025;-52
2021/08/04 05:26:59;;;;;;;4.20;1.50;;;;;;;;;;5052204;28;20029;-52
2021/08/04 05:29:25;;;;;;;1.65;1.55;;;;;;;;;;5052411;28;20040;-51
2021/08/04 05:31:51;;;;;;;2.65;1.35;;;;;;;;;;5051743;28;20039;-51
2021/08/04 05:34:17;;;;;;;8.18;1.60;;;;;;;;;;5052602;28;20028;-52
2021/08/04 05:36:44;;;;;;;3.35;1.75;;;;;;;;;;5052113;28;20024;-52
2021/08/04 05:39:10;;;;;;;3.47;1.52;;;;;;;;;;5052307;28;20508;-51
2021/08/04 05:41:36;;;;;;;1.15;1.05;;;;;;;;;;5051094;28;20036;-51
2021/08/04 05:44:02;;;;;;;2.50;1.40;;;;;;;;;;5052364;28;20112;-51
2021/08/04 05:46:28;;;;;;;3.38;1.70;;;;;;;;;;5051997;28;20032;-52
2021/08/04 05:48:54;;;;;;;1.70;1.33;;;;;;;;;;5052259;28;20029;-52
2021/08/04 05:51:20;;;;;;;6.38;1.35;;;;;;;;;;5051887;28;20066;-52
2021/08/04 05:53:46;;;;;;;2.53;1.33;;;;;;;;;;5052550;28;20017;-51
2021/08/04 05:56:12;;;;;;;2.10;1.40;;;;;;;;;;5051780;28;20441;-52
2021/08/04 05:58:38;;;;;;;2.15;1.45;;;;;;;;;;5052571;28;20043;-52
2021/08/04 06:01:04;;;;;;;4.38;1.67;;;;;;;;;;5051059;28;20033;-52
2021/08/04 06:03:30;;;;;;;10.10;1.85;;;;;;;;;;5052236;28;20103;-51
2021/08/04 06:05:56;;;;;;;2.83;1.83;;;;;;;;;;5051530;28;20029;-52
2021/08/04 06:08:22;;;;;;;5.18;1.70;;;;;;;;;;5052038;28;20455;-52
2021/08/04 06:10:48;;;;;;;3.83;1.90;;;;;;;;;;5053624;28;20050;-52
2021/08/04 06:13:14;;;;;;;2.88;1.70;;;;;;;;;;5055648;28;20032;-52
2021/08/04 06:15:40;;;;;;;3.80;2.20;;;;;;;;;;5054923;28;20025;-52
2021/08/04 06:18:06;;;;;;;3.28;2.08;;;;;;;;;;5055457;28;20079;-52
2021/08/04 06:20:32;;;;;;;3.33;2.47;;;;;;;;;;5054823;28;20518;-52
2021/08/04 06:22:58;;;;;;;3.55;2.85;;;;;;;;;;5055218;28;20041;-51
2021/08/04 06:25:24;;;;;;;3.55;2.13;;;;;;;;;;5055102;28;20049;-52
2021/08/04 06:27:52;;;;;;;3.13;2.10;;;;;;;;;;5054963;28;20486;-52
2021/08/04 06:30:18;;;;;;;6.80;3.22;;;;;;;;;;5055305;28;20025;-52
2021/08/04 06:32:44;;;;;;;3.55;2.17;;;;;;;;;;5054323;28;20025;-51
2021/08/04 06:35:10;;;;;;;6.22;2.92;;;;;;;;;;5054947;28;20029;-52
2021/08/04 06:37:36;;;;;;;3.53;2.05;;;;;;;;;;5055212;28;20135;-52
2021/08/04 06:40:03;;;;;;;4.90;2.67;;;;;;;;;;5054898;28;20060;-52
2021/08/04 06:42:29;;;;;;;3.08;2.10;;;;;;;;;;5054079;28;20425;-52
2021/08/04 06:44:55;;;;;;;4.07;2.25;;;;;;;;;;5055268;28;20074;-52
2021/08/04 06:47:21;;;;;;;4.03;2.22;;;;;;;;;;5055018;28;20024;-52
2021/08/04 06:49:47;;;;;;;6.15;3.03;;;;;;;;;;5054571;28;20025;-52
2021/08/04 06:52:13;;;;;;;5.47;2.40;;;;;;;;;;5054436;28;20032;-52
2021/08/04 06:54:39;;;;;;;3.00;2.35;;;;;;;;;;5054876;28;20052;-52
2021/08/04 06:57:05;;;;;;;3.92;2.35;;;;;;;;;;5054684;28;20029;-52
2021/08/04 06:59:31;;;;;;;3.30;2.10;;;;;;;;;;5054896;28;20104;-52
2021/08/04 07:02:01;;;;;;;3.15;2.08;;;;;;;;;;5053386;28;20128;-52
2021/08/04 07:04:27;;;;;;;3.83;2.28;;;;;;;;;;5054602;28;20025;-52
2021/08/04 07:06:57;;;;;;;3.85;2.25;;;;;;;;;;5053244;28;20037;-52
2021/08/04 07:09:23;;;;;;;2.88;1.75;;;;;;;;;;5054613;28;20021;-52
2021/08/04 07:11:49;;;;;;;2.10;1.75;;;;;;;;;;5053476;28;20021;-52
2021/08/04 07:14:17;;;;;;;2.55;1.98;;;;;;;;;;5054683;28;20037;-52
2021/08/04 07:16:43;;;;;;;2.45;1.90;;;;;;;;;;5054185;28;20021;-52
2021/08/04 07:19:10;;;;;;;2.90;1.98;;;;;;;;;;5054485;28;20025;-52
2021/08/04 07:21:36;;;;;;;5.45;2.38;;;;;;;;;;5051987;28;20041;-52
2021/08/04 07:24:02;;;;;;;6.65;2.17;;;;;;;;;;5054585;28;20027;-52
2021/08/04 07:26:28;;;;;;;9.75;3.00;;;;;;;;;;5054206;28;20437;-52
2021/08/04 07:28:56;;;;;;;4.18;2.58;;;;;;;;;;5054283;28;20021;-52
2021/08/04 07:31:22;;;;;;;3.28;2.50;;;;;;;;;;5053185;28;20414;-52
2021/08/04 07:33:48;;;;;;;5.22;2.78;;;;;;;;;;5053941;28;20151;-52
2021/08/04 07:36:14;;;;;;;4.65;3.30;;;;;;;;;;5053531;28;20347;-52
2021/08/04 07:38:40;;;;;;;5.13;3.42;;;;;;;;;;5054077;28;20036;-52
2021/08/04 07:41:06;;;;;;;4.97;3.17;;;;;;;;;;5053314;28;20029;-52
2021/08/04 07:43:32;;;;;;;5.03;3.20;;;;;;;;;;5053643;28;20028;-52
2021/08/04 07:45:58;;;;;;;6.55;3.72;;;;;;;;;;5053802;28;20461;-52
2021/08/04 07:48:24;;;;;;;4.82;3.25;;;;;;;;;;5053610;28;20029;-52
2021/08/04 07:50:50;;;;;;;5.47;3.00;;;;;;;;;;5052605;28;20036;-52
2021/08/04 07:53:16;;;;;;;4.03;3.13;;;;;;;;;;5053859;28;20021;-52
2021/08/04 07:55:42;;;;;;;5.63;2.88;;;;;;;;;;5054193;28;20035;-52
2021/08/04 07:58:08;;;;;;;4.78;3.00;;;;;;;;;;5053451;28;20115;-52
2021/08/04 08:00:34;;;;;;;4.65;3.17;;;;;;;;;;5052845;28;20056;-52
2021/08/04 08:03:02;;;;;;;5.47;2.67;;;;;;;;;;5053041;28;20430;-52
2021/08/04 08:05:28;;;;;;;5.85;3.28;;;;;;;;;;5053296;28;20051;-52
2021/08/04 08:07:54;;;;;;;4.93;3.15;;;;;;;;;;5053667;28;20017;-52
2021/08/04 08:10:21;;;;;;;5.05;3.00;;;;;;;;;;5053227;28;20240;-51
2021/08/04 08:12:48;;;;;;;3.20;2.40;;;;;;;;;;5052289;28;20052;-52
2021/08/04 08:15:14;;;;;;;3.65;2.38;;;;;;;;;;5051426;28;20029;-52
2021/08/04 08:17:40;;;;;;;6.47;2.72;;;;;;;;;;5053259;28;20388;-53
2021/08/04 08:20:07;;;;;;;4.53;2.75;;;;;;;;;;5053032;28;20025;-52
2021/08/04 08:22:34;;;;;;;3.88;2.67;;;;;;;;;;5052196;28;20033;-52
2021/08/04 08:25:00;;;;;;;6.55;2.88;;;;;;;;;;5053790;28;20025;-52
2021/08/04 08:27:26;;;;;;;4.20;2.45;;;;;;;;;;5052985;28;20108;-52
2021/08/04 08:29:52;;;;;;;3.92;2.65;;;;;;;;;;5052679;28;20107;-52
2021/08/04 08:32:18;;;;;;;8.07;2.72;;;;;;;;;;5051633;28;20075;-52
2021/08/04 08:34:44;;;;;;;2.67;2.20;;;;;;;;;;5052658;28;20017;-52
2021/08/04 08:37:10;;;;;;;3.00;2.30;;;;;;;;;;5058041;28;20024;-52
2021/08/04 08:39:36;;;;;;;3.00;2.28;;;;;;;;;;5073175;28;20496;-52
2021/08/04 08:42:02;;;;;;;8.68;2.60;;;;;;;;;;5071662;28;20036;-52
2021/08/04 08:44:28;;;;;;;4.10;2.60;;;;;;;;;;5071973;28;20020;-52
2021/08/04 08:46:54;;;;;;;4.03;2.50;;;;;;;;;;5072866;28;20453;-52
2021/08/04 08:49:29;;;;;;;4.68;2.53;;;;;;;;;;5072701;28;20035;-52
2021/08/04 08:51:56;;;;;;;3.67;1.92;;;;;;;;;;5071884;28;20048;-52
2021/08/04 08:54:23;;;;;;;3.92;2.22;;;;;;;;;;5072719;28;20035;-52
2021/08/04 08:56:49;;;;;;;5.55;2.33;;;;;;;;;;5072701;28;20017;-52
2021/08/04 08:59:16;;;;;;;4.95;2.50;;;;;;;;;;5072529;28;20028;-52
2021/08/04 09:01:43;;;;;;;5.05;2.38;;;;;;;;;;5070499;28;20036;-52
2021/08/04 09:04:10;;;;;;;3.72;2.25;;;;;;;;;;5070766;28;20016;-52
2021/08/04 09:06:42;;;;;;;5.63;2.55;;;;;;;;;;5072587;28;20031;-52
2021/08/04 09:09:19;;;;;;;4.20;2.25;;;;;;;;;;5072847;28;20323;-52
2021/08/04 09:11:46;;;;;;;2.78;1.95;;;;;;;;;;5071675;28;20029;-52
2021/08/04 09:14:12;;;;;;;5.35;2.13;;;;;;;;;;5072135;28;20020;-51
2021/08/04 09:16:39;;;;;;;3.80;2.20;;;;;;;;;;5072841;28;20024;-52
2021/08/04 09:19:18;;;;;;;3.97;2.45;;;;;;;;;;5072949;28;20038;-52
2021/08/04 09:21:44;;;;;;;3.90;2.28;;;;;;;;;;5071266;28;20159;-52
2021/08/04 09:24:10;;;;;;;4.00;2.95;;;;;;;;;;5072426;28;20115;-52
2021/08/04 09:26:39;;;;;;;5.80;2.60;;;;;;;;;;5072794;28;20021;-52
2021/08/04 09:29:06;;;;;;;3.92;2.17;;;;;;;;;;5072390;28;20035;-52
2021/08/04 09:31:43;;;;;;;7.25;2.30;;;;;;;;;;5071604;28;20035;-52
2021/08/04 09:34:28;;;;;;;3.28;1.83;;;;;;;;;;5072183;28;20029;-52
2021/08/04 09:37:09;;;;;;;3.90;1.77;;;;;;;;;;5052125;28;20397;-52
2021/08/04 09:39:39;;;;;;;4.20;1.83;;;;;;;;;;5052642;28;20029;-52
2021/08/04 09:42:06;;;;;;;3.30;1.77;;;;;;;;;;5051717;28;20075;-52
2021/08/04 09:44:32;;;;;;;3.88;2.35;;;;;;;;;;5053372;28;20429;-52
2021/08/04 09:47:11;;;;;;;3.70;2.38;;;;;;;;;;5055339;28;20056;-52
2021/08/04 09:49:38;;;;;;;2.60;1.63;;;;;;;;;;5055862;28;20063;-52
2021/08/04 09:52:12;;;;;;;3.33;2.00;;;;;;;;;;5055258;28;20025;-52
2021/08/04 09:54:42;;;;;;;4.20;1.95;;;;;;;;;;5055991;28;20104;-52
2021/08/04 09:57:09;;;;;;;2.58;1.85;;;;;;;;;;5055942;28;20021;-51
2021/08/04 09:59:35;;;;;;;4.18;1.80;;;;;;;;;;5055873;28;20069;-52
2021/08/04 10:02:02;;;;;;;2.13;1.55;;;;;;;;;;5055062;28;20078;-52
2021/08/04 10:04:28;;;;;;;2.10;1.42;;;;;;;;;;5055499;28;20052;-52
2021/08/04 10:07:07;;;;;;;3.78;1.20;;;;;;;;;;5055982;28;20029;-52
2021/08/04 10:09:34;;;;;;;3.25;1.70;;;;;;;;;;5055775;28;20049;-52
2021/08/04 10:12:00;;;;;;;2.72;1.63;;;;;;;;;;5055049;28;20025;-52
2021/08/04 10:14:26;;;;;;;2.50;1.70;;;;;;;;;;5055525;28;20064;-52
2021/08/04 10:16:53;;;;;;;2.03;1.15;;;;;;;;;;5055334;28;20032;-51
2021/08/04 10:19:19;;;;;;;3.47;1.50;;;;;;;;;;5055615;28;20036;-52
2021/08/04 10:21:49;;;;;;;2.50;1.58;;;;;;;;;;5054331;28;20053;-52
2021/08/04 10:24:16;;;;;;;2.65;1.70;;;;;;;;;;5055467;28;20029;-52
2021/08/04 10:26:42;;;;;;;2.38;1.52;;;;;;;;;;5055527;28;20042;-52
2021/08/04 10:29:09;;;;;;;3.33;1.50;;;;;;;;;;5055253;28;20108;-52
2021/08/04 10:31:36;;;;;;;2.47;1.60;;;;;;;;;;5053944;28;20029;-52
2021/08/04 10:34:03;;;;;;;2.63;1.70;;;;;;;;;;5055177;28;20017;-52
2021/08/04 10:36:31;;;;;;;3.75;1.67;;;;;;;;;;5055136;28;20029;-52
2021/08/04 10:38:59;;;;;;;3.63;1.60;;;;;;;;;;5055433;28;20314;-52
2021/08/04 10:41:26;;;;;;;1.83;1.23;;;;;;;;;;5054233;28;20033;-51
2021/08/04 10:43:59;;;;;;;3.38;1.40;;;;;;;;;;5054975;28;20056;-51
2021/08/04 10:46:31;;;;;;;3.25;1.75;;;;;;;;;;5054905;28;20033;-52
2021/08/04 10:49:06;;;;;;;3.10;1.48;;;;;;;;;;5054694;28;20443;-52
2021/08/04 10:51:32;;;;;;;3.88;1.75;;;;;;;;;;5054042;28;20367;-52
2021/08/04 10:54:01;;;;;;;3.17;1.45;;;;;;;;;;5054592;28;20439;-52
2021/08/04 10:56:37;;;;;;;2.60;1.50;;;;;;;;;;5054266;28;20029;-52
2021/08/04 10:59:08;;;;;;;2.67;1.60;;;;;;;;;;5054458;28;20032;-52
2021/08/04 11:01:49;;;;;;;2.03;1.58;;;;;;;;;;5053769;28;20041;-52
2021/08/04 11:04:14;;;;;;;;;;;;;;;;;;5054955;28;20021;-52
2021/08/04 11:06:59;;;;;;;1.58;1.48;;;;;;;;;;5054365;28;19909;-52
2021/08/04 11:09:33;;;;;;;1.95;1.27;;;;;;;;;;5054321;28;20029;-52
2021/08/04 11:12:01;;;;;;;0.93;0.93;;;;;;;;;;5053814;28;20037;-52
2021/08/04 11:14:49;;;;;;;3.13;1.20;;;;;;;;;;5054441;28;20025;-52
2021/08/04 11:17:16;;;;;;;2.63;1.45;;;;;;;;;;5053681;28;20481;-52
2021/08/04 11:20:05;;;;;;;2.38;1.40;;;;;;;;;;5054360;28;20029;-51
2021/08/04 11:22:41;;;;;;;6.22;1.60;;;;;;;;;;5053727;28;20040;-52
2021/08/04 11:25:10;;;;;;;2.25;1.10;;;;;;;;;;5054064;28;20412;-52
2021/08/04 11:27:37;;;;;;;2.53;1.63;;;;;;;;;;5053841;28;20079;-52
2021/08/04 11:30:04;;;;;;;1.88;1.40;;;;;;;;;;5054164;28;20036;-52
2021/08/04 11:32:31;;;;;;;2.03;1.42;;;;;;;;;;5053203;28;20068;-51
2021/08/04 11:34:57;;;;;;;1.02;0.88;;;;;;;;;;5053990;28;20018;-51
2021/08/04 11:37:25;;;;;;;1.55;1.10;;;;;;;;;;5054063;28;20492;-52
2021/08/04 11:40:00;;;;;;;1.90;1.00;;;;;;;;;;5053917;28;20028;-52
2021/08/04 11:42:26;;;;;;;1.45;1.30;;;;;;;;;;5052814;28;20455;-52
2021/08/04 11:44:52;;;;;;;1.58;1.30;;;;;;;;;;5053965;28;20017;-52
2021/08/04 11:47:19;;;;;;;1.67;1.20;;;;;;;;;;5053479;28;20029;-52
2021/08/04 11:49:51;;;;;;;1.90;1.33;;;;;;;;;;5053558;28;20017;-52
2021/08/04 11:52:19;;;;;;;2.00;1.15;;;;;;;;;;5052997;28;20152;-52
2021/08/04 11:54:52;;;;;;;1.95;1.52;;;;;;;;;;5053570;28;20092;-51
2021/08/04 11:57:31;;;;;;;2.10;1.40;;;;;;;;;;5053852;28;20363;-52
2021/08/04 12:00:08;;;;;;;3.33;0.93;;;;;;;;;;5054074;28;20028;-52
2021/08/04 12:02:35;;;;;;;1.27;1.10;;;;;;;;;;5052296;28;20367;-52
2021/08/04 12:05:01;;;;;;;2.60;1.23;;;;;;;;;;5053191;28;20021;-52
2021/08/04 12:07:28;;;;;;;2.33;1.33;;;;;;;;;;5053570;28;20119;-52
2021/08/04 12:09:58;;;;;;;1.23;1.10;;;;;;;;;;5053311;28;20350;-52
2021/08/04 12:12:27;;;;;;;3.42;1.20;;;;;;;;;;5052522;28;20354;-52
2021/08/04 12:14:54;;;;;;;2.50;1.27;;;;;;;;;;5053172;28;20061;-52
2021/08/04 12:17:21;;;;;;;6.50;1.30;;;;;;;;;;5053467;28;20116;-52
2021/08/04 12:19:48;;;;;;;2.03;1.17;;;;;;;;;;5052549;28;20052;-52
2021/08/04 12:22:28;;;;;;;2.78;0.70;;;;;;;;;;5052332;28;20048;-52
2021/08/04 12:24:58;;;;;;;2.42;1.55;;;;;;;;;;5052921;28;20044;-52
2021/08/04 12:27:36;;;;;;;1.33;0.95;;;;;;;;;;5053644;28;20074;-52
2021/08/04 12:30:11;;;;;;;1.52;1.08;;;;;;;;;;5052711;28;20104;-52
2021/08/04 12:32:53;;;;;;;1.85;1.25;;;;;;;;;;5052603;28;20137;-52
2021/08/04 12:35:21;;;;;;;1.17;0.98;;;;;;;;;;5052425;28;20468;-52
2021/08/04 12:37:48;;;;;;;3.63;0.90;;;;;;;;;;5053340;28;20033;-52
2021/08/04 12:40:14;;;;;;;1.92;0.95;;;;;;;;;;5052708;28;20518;-52
2021/08/04 12:42:40;;;;;;;1.40;1.30;;;;;;;;;;5051579;28;20033;-52
2021/08/04 12:45:22;;;;;;;2.00;1.20;;;;;;;;;;5053039;28;20112;-52
2021/08/04 12:48:06;;;;;;;0.98;0.90;;;;;;;;;;5052160;28;20458;-53
2021/08/04 12:50:48;;;;;;;1.90;1.55;;;;;;;;;;5052586;28;20021;-52
2021/08/04 12:53:21;;;;;;;2.85;1.30;;;;;;;;;;5052785;28;20428;-52
2021/08/04 12:56:05;;;;;;;3.20;1.00;;;;;;;;;;5052591;28;20071;-52
2021/08/04 12:58:50;;;;;;;1.90;1.00;;;;;;;;;;5052760;28;20021;-52
2021/08/04 13:01:20;;;;;;;0.98;0.93;;;;;;;;;;5051716;28;20029;-52
2021/08/04 13:03:46;;;;;;;;;;;;;;;;;;5053201;28;20072;-52
2021/08/04 13:06:12;;;;;;;1.02;0.95;;;;;;;;;;5052612;28;19956;-52
2021/08/04 13:08:38;;;;;;;1.25;0.85;;;;;;;;;;5052835;28;20017;-52
2021/08/04 13:11:04;;;;;;;1.00;0.80;;;;;;;;;;5051789;28;20025;-52
2021/08/04 13:13:49;;;;;;;1.80;0.95;;;;;;;;;;5052687;28;20447;-52
2021/08/04 13:16:34;;;;;;;1.20;0.95;;;;;;;;;;5052617;28;20461;-52
2021/08/04 13:19:00;;;;;;;1.77;1.23;;;;;;;;;;5052275;28;20029;-52
2021/08/04 13:21:27;;;;;;;3.00;1.10;;;;;;;;;;5055722;28;20132;-52
2021/08/04 13:23:53;;;;;;;1.50;1.10;;;;;;;;;;5056857;28;20041;-52
2021/08/04 13:26:21;;;;;;;3.33;1.08;;;;;;;;;;5056327;28;20071;-52
2021/08/04 13:28:48;;;;;;;2.17;0.90;;;;;;;;;;5056169;28;20389;-52
2021/08/04 13:31:18;;;;;;;3.28;1.15;;;;;;;;;;5055697;28;20021;-52
2021/08/04 13:33:44;;;;;;;1.23;0.88;;;;;;;;;;5056675;28;20033;-52
2021/08/04 13:36:11;;;;;;;1.30;1.13;;;;;;;;;;5055939;28;20025;-52
2021/08/04 13:38:37;;;;;;;1.35;0.82;;;;;;;;;;5056547;28;20354;-52
2021/08/04 13:41:04;;;;;;;2.72;1.30;;;;;;;;;;5054931;28;20370;-52
2021/08/04 13:43:30;;;;;;;1.88;1.50;;;;;;;;;;5056469;28;20112;-52
2021/08/04 13:45:56;;;;;;;1.15;1.05;;;;;;;;;;5056023;28;20033;-52
2021/08/04 13:48:22;;;;;;;1.95;1.00;;;;;;;;;;5056162;28;20033;-52
2021/08/04 13:50:52;;;;;;;2.47;1.13;;;;;;;;;;5055460;28;20082;-52
2021/08/04 13:53:19;;;;;;;4.38;1.40;;;;;;;;;;5055802;28;20035;-52
2021/08/04 13:55:45;;;;;;;2.10;1.08;;;;;;;;;;5055472;28;20059;-52
2021/08/04 13:58:11;;;;;;;1.65;1.30;;;;;;;;;;5056003;28;20397;-52
2021/08/04 14:00:39;;;;;;;1.88;1.48;;;;;;;;;;5055592;28;20063;-52
2021/08/04 14:03:08;;;;;;;2.80;1.42;;;;;;;;;;5055695;28;20079;-52
2021/08/04 14:05:39;;;;;;;2.10;1.10;;;;;;;;;;5055647;28;20116;-52
2021/08/04 14:08:09;;;;;;;1.42;1.33;;;;;;;;;;5055830;28;20021;-52
2021/08/04 14:10:35;;;;;;;1.42;1.10;;;;;;;;;;5069175;28;20356;-52
2021/08/04 14:13:01;;;;;;;1.65;1.20;;;;;;;;;;5075442;28;20032;-52
2021/08/04 14:15:28;;;;;;;1.42;1.20;;;;;;;;;;5073398;28;20070;-52
2021/08/04 14:17:54;;;;;;;7.28;1.35;;;;;;;;;;5075394;28;20028;-52
2021/08/04 14:20:20;;;;;;;1.27;1.02;;;;;;;;;;5075714;28;20066;-52
2021/08/04 14:22:47;;;;;;;2.35;1.08;;;;;;;;;;5074063;28;20066;-52
2021/08/04 14:25:14;;;;;;;3.75;1.88;;;;;;;;;;5075221;28;20331;-52
2021/08/04 14:27:40;;;;;;;1.48;1.10;;;;;;;;;;5075224;28;20430;-50
2021/08/04 14:30:07;;;;;;;3.60;1.30;;;;;;;;;;5074298;28;20025;-52
2021/08/04 14:32:33;;;;;;;4.13;1.30;;;;;;;;;;5072304;28;20354;-52
2021/08/04 14:34:59;;;;;;;3.63;1.00;;;;;;;;;;5068025;28;20342;-52
2021/08/04 14:37:25;;;;;;;2.58;1.52;;;;;;;;;;5055023;28;20025;-52
2021/08/04 14:39:53;;;;;;;1.70;1.30;;;;;;;;;;5054993;28;20021;-52
2021/08/04 14:42:19;;;;;;;2.15;1.50;;;;;;;;;;5054065;28;20373;-54
2021/08/04 14:44:45;;;;;;;3.58;1.30;;;;;;;;;;5055338;28;20116;-52
2021/08/04 14:47:10;;;;;;;1.20;1.00;;;;;;;;;;5054853;28;20055;-52